createdAt,value
2023-04-10T00:01:19.512Z,101142.41
2023-04-10T00:04:34.557Z,101136.03
2023-04-10T00:07:42.507Z,101136.84
2023-04-10T00:10:51.616Z,101133.62
2023-04-10T00:14:00.492Z,101132.22
2023-04-10T00:17:09.155Z,101121.03
2023-04-10T00:20:17.508Z,101118.37
2023-04-10T00:23:32.526Z,101114.44
2023-04-10T00:26:41.261Z,101115.37
2023-04-10T00:29:56.523Z,101107.38
2023-04-10T00:33:18.523Z,101106.31
2023-04-10T00:36:27.141Z,101110.03
2023-04-10T00:39:41.579Z,101105.63
2023-04-10T00:42:43.499Z,101106.22
2023-04-10T00:45:58.577Z,101104.81
2023-04-10T00:49:07.587Z,101102.84
2023-04-10T00:52:16.538Z,101084.59
2023-04-10T00:55:32.525Z,101093.00
2023-04-10T00:58:40.534Z,101087.38
2023-04-10T01:01:55.728Z,101098.00
2023-04-10T01:05:04.427Z,101099.03
2023-04-10T01:08:42.531Z,101095.91
2023-04-10T01:12:02.513Z,101094.06
2023-04-10T01:15:26.526Z,101095.91
2023-04-10T01:18:59.790Z,101085.03
2023-04-10T01:22:16.546Z,101087.94
2023-04-10T01:25:41.316Z,101087.38
2023-04-10T01:29:06.580Z,101092.56
2023-04-10T01:32:28.528Z,101089.91
2023-04-10T01:35:38.804Z,101086.19
2023-04-10T01:38:49.507Z,101088.84
2023-04-10T01:42:05.502Z,101089.47
2023-04-10T01:45:18.523Z,101096.94
2023-04-10T01:48:27.567Z,101080.31
2023-04-10T01:51:37.356Z,101077.66
2023-04-10T01:54:46.512Z,101088.53
2023-04-10T01:58:01.509Z,101073.06
2023-04-10T02:01:22.476Z,101084.37
2023-04-10T02:04:44.589Z,101086.00
2023-04-10T02:08:14.921Z,101087.84
2023-04-10T02:11:40.517Z,101083.69
2023-04-10T02:14:56.552Z,101079.84
2023-04-10T02:18:12.518Z,101086.81
2023-04-10T02:21:27.511Z,101086.22
2023-04-10T02:24:36.214Z,101081.50
2023-04-10T02:27:45.544Z,101084.16
2023-04-10T02:31:00.812Z,101091.88
2023-04-10T02:34:09.512Z,101076.41
2023-04-10T02:37:24.523Z,101094.87
2023-04-10T02:40:33.167Z,101084.47
2023-04-10T02:43:47.532Z,101078.56
2023-04-10T02:46:49.457Z,101075.47
2023-04-10T02:50:04.498Z,101073.25
2023-04-10T02:53:26.607Z,101061.84
2023-04-10T02:56:35.215Z,101060.22
2023-04-10T02:59:43.510Z,101056.28
2023-04-10T03:02:52.308Z,101057.56
2023-04-10T03:06:00.561Z,101058.81
2023-04-10T03:09:09.176Z,101056.72
2023-04-10T03:12:23.558Z,101056.63
2023-04-10T03:15:25.609Z,101058.22
2023-04-10T03:18:41.529Z,101052.91
2023-04-10T03:21:50.096Z,101058.81
2023-04-10T03:25:04.541Z,101057.06
2023-04-10T03:28:13.174Z,101067.69
2023-04-10T03:31:27.560Z,101063.31
2023-04-10T03:34:36.175Z,101062.81
2023-04-10T03:37:44.525Z,101064.91
2023-04-10T03:40:53.267Z,101063.06
2023-04-10T03:44:08.511Z,101061.22
2023-04-10T03:47:10.467Z,101060.03
2023-04-10T03:50:25.514Z,101055.78
2023-04-10T03:53:40.505Z,101065.13
2023-04-10T03:56:49.226Z,101065.81
2023-04-10T03:59:57.513Z,101067.41
2023-04-10T04:03:14.709Z,101072.72
2023-04-10T04:06:29.491Z,101065.59
2023-04-10T04:09:44.567Z,101065.25
2023-04-10T04:12:53.500Z,101071.56
2023-04-10T04:16:01.561Z,101075.84
2023-04-10T04:19:16.999Z,101069.16
2023-04-10T04:22:19.059Z,101082.62
2023-04-10T04:25:33.511Z,101082.41
2023-04-10T04:28:42.080Z,101086.34
2023-04-10T04:32:03.596Z,101080.53
2023-04-10T04:35:18.547Z,101087.69
2023-04-10T04:38:27.173Z,101088.72
2023-04-10T04:41:41.486Z,101091.00
2023-04-10T04:44:49.518Z,101081.66
2023-04-10T04:47:58.164Z,101095.84
2023-04-10T04:51:06.536Z,101092.84
2023-04-10T04:54:21.506Z,101107.75
2023-04-10T04:57:36.518Z,101093.28
2023-04-10T05:00:51.508Z,101107.19
2023-04-10T05:03:53.770Z,101115.53
2023-04-10T05:07:08.509Z,101110.22
2023-04-10T05:10:17.203Z,101113.00
2023-04-10T05:13:25.498Z,101113.84
2023-04-10T05:16:40.515Z,101113.97
2023-04-10T05:19:42.828Z,101112.75
2023-04-10T05:22:57.541Z,101122.81
2023-04-10T05:26:19.480Z,101122.44
2023-04-10T05:29:28.205Z,101125.47
2023-04-10T05:32:50.523Z,101121.53
2023-04-10T05:36:05.541Z,101122.59
2023-04-10T05:39:20.503Z,101129.44
2023-04-10T05:42:35.564Z,101124.13
2023-04-10T05:45:43.470Z,101129.19
2023-04-10T05:48:53.794Z,101128.37
2023-04-10T05:52:08.509Z,101128.75
2023-04-10T05:55:10.471Z,101114.41
2023-04-10T05:58:25.546Z,101120.53
2023-04-10T06:01:40.539Z,101128.53
2023-04-10T06:04:49.561Z,101113.72
2023-04-10T06:08:04.544Z,101130.25
2023-04-10T06:11:19.512Z,101126.19
2023-04-10T06:14:34.517Z,101132.47
2023-04-10T06:17:48.545Z,101130.84
2023-04-10T06:20:57.139Z,101127.59
2023-04-10T06:24:12.801Z,101123.28
2023-04-10T06:27:21.111Z,101123.06
2023-04-10T06:30:29.537Z,101130.34
2023-04-10T06:33:51.502Z,101135.44
2023-04-10T06:37:06.522Z,101128.56
2023-04-10T06:40:10.666Z,101135.88
2023-04-10T06:43:25.542Z,101129.72
2023-04-10T06:46:27.888Z,101136.72
2023-04-10T06:49:42.508Z,101137.50
2023-04-10T06:52:51.137Z,101143.25
2023-04-10T06:56:01.559Z,101133.00
2023-04-10T06:59:18.534Z,101122.53
2023-04-10T07:02:27.677Z,101105.56
2023-04-10T07:05:36.125Z,101125.88
2023-04-10T07:08:44.505Z,101127.94
2023-04-10T07:11:53.220Z,101123.22
2023-04-10T07:15:08.521Z,101104.28
2023-04-10T07:18:23.560Z,101120.66
2023-04-10T07:21:32.240Z,101120.44
2023-04-10T07:24:47.549Z,101118.53
2023-04-10T07:27:56.122Z,101116.56
2023-04-10T07:31:04.544Z,101110.28
2023-04-10T07:34:19.882Z,101107.75
2023-04-10T07:37:34.533Z,101103.16
2023-04-10T07:40:42.506Z,101102.44
2023-04-10T07:43:57.571Z,101103.06
2023-04-10T07:47:12.523Z,101097.66
2023-04-10T07:50:27.515Z,101094.00
2023-04-10T07:53:43.522Z,101096.44
2023-04-10T07:56:51.505Z,101098.78
2023-04-10T08:00:00.174Z,101090.44
2023-04-10T08:03:11.754Z,101096.00
2023-04-10T08:06:20.135Z,101081.25
2023-04-10T08:09:34.493Z,101090.03
2023-04-10T08:12:43.540Z,101094.44
2023-04-10T08:15:58.496Z,101092.16
2023-04-10T08:19:01.975Z,101093.75
2023-04-10T08:22:16.507Z,101090.47
2023-04-10T08:25:24.569Z,101083.78
2023-04-10T08:28:33.118Z,101068.56
2023-04-10T08:31:54.546Z,101043.25
2023-04-10T08:35:03.185Z,101082.91
2023-04-10T08:38:17.523Z,101075.31
2023-04-10T08:41:26.120Z,101074.88
2023-04-10T08:44:34.551Z,101078.06
2023-04-10T08:47:51.572Z,101068.13
2023-04-10T08:51:00.550Z,101064.31
2023-04-10T08:54:23.578Z,101066.53
2023-04-10T08:57:32.524Z,101067.81
2023-04-10T09:00:47.548Z,101076.72
2023-04-10T09:04:02.678Z,101058.31
2023-04-10T09:07:17.537Z,101047.59
2023-04-10T09:10:26.312Z,101062.91
2023-04-10T09:13:48.559Z,101056.09
2023-04-10T09:17:18.564Z,101051.66
2023-04-10T09:20:28.521Z,101049.66
2023-04-10T09:23:43.527Z,101040.03
2023-04-10T09:26:45.410Z,101041.22
2023-04-10T09:30:00.564Z,101034.66
2023-04-10T09:33:33.544Z,101036.56
2023-04-10T09:36:44.202Z,101029.69
2023-04-10T09:39:58.563Z,101024.53
2023-04-10T09:43:31.535Z,101030.47
2023-04-10T09:46:40.178Z,101016.94
2023-04-10T09:49:58.527Z,101024.56
2023-04-10T09:53:09.410Z,101019.69
2023-04-10T09:56:18.555Z,101018.81
2023-04-10T09:59:33.554Z,101024.44
2023-04-10T10:02:48.641Z,101010.91
2023-04-10T10:05:58.531Z,101013.28
2023-04-10T10:09:14.543Z,101014.78
2023-04-10T10:12:22.309Z,101008.88
2023-04-10T10:15:52.566Z,101011.22
2023-04-10T10:19:22.527Z,101015.44
2023-04-10T10:22:26.384Z,101009.97
2023-04-10T10:25:42.524Z,101009.19
2023-04-10T10:28:53.756Z,101008.09
2023-04-10T10:32:09.046Z,100996.84
2023-04-10T10:35:26.327Z,100997.25
2023-04-10T10:38:36.550Z,100996.94
2023-04-10T10:41:54.524Z,100995.22
2023-04-10T10:45:21.597Z,100992.53
2023-04-10T10:48:29.589Z,100991.78
2023-04-10T10:51:53.525Z,100985.31
2023-04-10T10:54:59.423Z,100996.56
2023-04-10T10:58:16.551Z,100992.63
2023-04-10T11:01:25.504Z,100970.53
2023-04-10T11:04:52.526Z,100988.94
2023-04-10T11:08:07.563Z,100994.06
2023-04-10T11:11:24.871Z,100989.13
2023-04-10T11:14:33.572Z,100989.59
2023-04-10T11:17:56.564Z,100978.00
2023-04-10T11:21:16.563Z,100976.00
2023-04-10T11:24:31.545Z,100979.00
2023-04-10T11:27:44.065Z,100973.19
2023-04-10T11:30:58.562Z,100975.56
2023-04-10T11:34:14.541Z,100975.28
2023-04-10T11:37:23.473Z,100968.47
2023-04-10T11:40:38.556Z,100966.28
2023-04-10T11:43:40.509Z,100966.50
2023-04-10T11:46:55.549Z,100969.37
2023-04-10T11:50:04.528Z,100978.63
2023-04-10T11:53:20.426Z,100977.16
2023-04-10T11:56:28.557Z,100970.81
2023-04-10T11:59:43.550Z,100970.22
2023-04-10T12:02:53.126Z,100963.44
2023-04-10T12:06:09.559Z,100951.81
2023-04-10T12:09:16.568Z,100974.59
2023-04-10T12:12:44.561Z,100964.56
2023-04-10T12:15:59.566Z,100961.88
2023-04-10T12:19:02.574Z,100966.84
2023-04-10T12:22:19.614Z,100962.31
2023-04-10T12:25:28.182Z,100965.09
2023-04-10T12:28:43.566Z,100955.28
2023-04-10T12:31:51.572Z,100952.75
2023-04-10T12:35:07.101Z,100948.81
2023-04-10T12:38:21.568Z,100939.38
2023-04-10T12:41:32.271Z,100920.63
2023-04-10T12:45:01.618Z,100923.59
2023-04-10T12:48:10.130Z,100907.59
2023-04-10T12:51:24.554Z,100912.22
2023-04-10T12:54:37.566Z,100903.22
2023-04-10T12:57:47.851Z,100903.12
2023-04-10T13:01:03.617Z,100899.66
2023-04-10T13:04:12.707Z,100895.06
2023-04-10T13:07:21.235Z,100884.66
2023-04-10T13:10:36.560Z,100881.06
2023-04-10T13:13:45.357Z,100881.25
2023-04-10T13:17:00.570Z,100858.78
2023-04-10T13:20:09.619Z,100865.19
2023-04-10T13:23:18.159Z,100851.66
2023-04-10T13:26:32.552Z,100863.78
2023-04-10T13:29:34.551Z,100848.69
2023-04-10T13:32:49.590Z,100846.41
2023-04-10T13:36:11.638Z,100843.91
2023-04-10T13:39:13.659Z,100839.59
2023-04-10T13:42:28.579Z,100839.69
2023-04-10T13:45:43.583Z,100830.63
2023-04-10T13:48:46.005Z,100817.66
2023-04-10T13:52:00.646Z,100805.94
2023-04-10T13:55:16.582Z,100802.72
2023-04-10T13:58:25.232Z,100816.91
2023-04-10T14:01:39.653Z,100808.31
2023-04-10T14:04:54.596Z,100800.94
2023-04-10T14:07:56.593Z,100792.44
2023-04-10T14:11:11.562Z,100781.81
2023-04-10T14:14:22.049Z,100778.25
2023-04-10T14:17:36.638Z,100753.66
2023-04-10T14:20:52.593Z,100763.88
2023-04-10T14:23:54.548Z,100764.75
2023-04-10T14:27:10.890Z,100757.66
2023-04-10T14:30:20.587Z,100755.87
2023-04-10T14:33:35.618Z,100752.09
2023-04-10T14:36:44.594Z,100734.09
2023-04-10T14:39:53.288Z,100736.22
2023-04-10T14:43:01.641Z,100734.94
2023-04-10T14:46:16.581Z,100724.47
2023-04-10T14:49:18.537Z,100720.31
2023-04-10T14:52:35.588Z,100725.81
2023-04-10T14:55:44.206Z,100726.09
2023-04-10T14:58:58.557Z,100720.38
2023-04-10T15:02:07.471Z,100716.31
2023-04-10T15:05:22.588Z,100712.31
2023-04-10T15:08:24.597Z,100701.69
2023-04-10T15:11:39.591Z,100696.91
2023-04-10T15:14:41.691Z,100693.34
2023-04-10T15:17:56.606Z,100684.19
2023-04-10T15:21:05.671Z,100682.75
2023-04-10T15:24:14.593Z,100679.28
2023-04-10T15:27:29.605Z,100682.84
2023-04-10T15:30:44.658Z,100682.13
2023-04-10T15:33:59.580Z,100672.16
2023-04-10T15:37:14.623Z,100663.94
2023-04-10T15:40:23.600Z,100663.34
2023-04-10T15:43:38.586Z,100661.72
2023-04-10T15:46:47.216Z,100664.03
2023-04-10T15:49:55.610Z,100667.03
2023-04-10T15:53:04.402Z,100654.63
2023-04-10T15:56:19.599Z,100654.63
2023-04-10T15:59:27.620Z,100659.66
2023-04-10T16:02:36.328Z,100651.56
2023-04-10T16:05:51.592Z,100651.22
2023-04-10T16:09:18.364Z,100651.72
2023-04-10T16:12:39.599Z,100645.06
2023-04-10T16:15:50.168Z,100632.19
2023-04-10T16:19:04.636Z,100636.47
2023-04-10T16:22:13.204Z,100637.22
2023-04-10T16:25:27.642Z,100635.03
2023-04-10T16:28:36.287Z,100628.00
2023-04-10T16:31:52.707Z,100627.13
2023-04-10T16:35:07.597Z,100628.22
2023-04-10T16:38:16.258Z,100622.22
2023-04-10T16:41:31.602Z,100626.03
2023-04-10T16:44:33.998Z,100622.34
2023-04-10T16:47:48.610Z,100632.06
2023-04-10T16:50:57.604Z,100617.44
2023-04-10T16:54:12.603Z,100616.75
2023-04-10T16:57:21.815Z,100618.78
2023-04-10T17:00:30.618Z,100595.84
2023-04-10T17:03:45.656Z,100611.13
2023-04-10T17:06:47.596Z,100606.00
2023-04-10T17:10:02.579Z,100609.34
2023-04-10T17:13:04.813Z,100617.53
2023-04-10T17:16:21.686Z,100625.44
2023-04-10T17:19:36.607Z,100627.13
2023-04-10T17:22:45.595Z,100628.84
2023-04-10T17:26:00.617Z,100635.97
2023-04-10T17:29:02.620Z,100640.87
2023-04-10T17:32:17.607Z,100638.44
2023-04-10T17:35:26.368Z,100643.97
2023-04-10T17:38:42.633Z,100628.31
2023-04-10T17:41:57.655Z,100655.13
2023-04-10T17:45:06.896Z,100628.69
2023-04-10T17:48:17.001Z,100652.59
2023-04-10T17:51:25.273Z,100659.34
2023-04-10T17:54:40.607Z,100655.72
2023-04-10T17:57:49.240Z,100663.06
2023-04-10T18:01:03.653Z,100662.81
2023-04-10T18:04:19.775Z,100651.94
2023-04-10T18:07:28.582Z,100659.56
2023-04-10T18:10:43.636Z,100657.56
2023-04-10T18:13:47.026Z,100661.72
2023-04-10T18:17:01.919Z,100662.00
2023-04-10T18:20:17.625Z,100661.50
2023-04-10T18:23:26.624Z,100662.16
2023-04-10T18:26:41.631Z,100666.03
2023-04-10T18:29:43.548Z,100661.22
2023-04-10T18:33:06.381Z,100663.53
2023-04-10T18:36:22.608Z,100663.66
2023-04-10T18:39:37.606Z,100659.00
2023-04-10T18:42:46.600Z,100660.37
2023-04-10T18:45:55.210Z,100668.81
2023-04-10T18:49:11.617Z,100666.59
2023-04-10T18:52:20.936Z,100692.78
2023-04-10T18:55:29.644Z,100697.56
2023-04-10T18:58:45.949Z,100690.16
2023-04-10T19:01:49.374Z,100690.19
2023-04-10T19:05:05.117Z,100684.31
2023-04-10T19:08:19.613Z,100691.88
2023-04-10T19:11:22.986Z,100694.03
2023-04-10T19:14:37.729Z,100682.84
2023-04-10T19:17:47.628Z,100687.44
2023-04-10T19:21:02.645Z,100691.50
2023-04-10T19:24:20.024Z,100700.19
2023-04-10T19:31:32.876Z,100689.78
2023-04-10T19:34:48.041Z,100693.63
2023-04-10T19:37:56.607Z,100689.44
2023-04-10T19:41:20.155Z,100689.81
2023-04-10T19:44:35.018Z,100673.28
2023-04-10T19:47:43.526Z,100673.31
2023-04-10T19:50:53.014Z,100678.69
2023-04-10T19:54:01.398Z,100676.31
2023-04-10T19:57:10.044Z,100669.09
2023-04-10T20:00:24.901Z,100671.25
2023-04-10T20:03:40.081Z,100668.59
2023-04-10T20:06:48.626Z,100663.25
2023-04-10T20:09:57.409Z,100651.00
2023-04-10T20:13:12.639Z,100648.34
2023-04-10T20:16:14.630Z,100659.88
2023-04-10T20:19:29.614Z,100667.94
2023-04-10T20:22:31.533Z,100663.94
2023-04-10T20:25:46.620Z,100659.41
2023-04-10T20:28:54.791Z,100655.91
2023-04-10T20:32:03.420Z,100659.38
2023-04-10T20:35:25.629Z,100657.50
2023-04-10T20:38:27.838Z,100653.22
2023-04-10T20:41:42.621Z,100635.38
2023-04-10T20:44:57.613Z,100638.88
2023-04-10T20:47:59.493Z,100637.28
2023-04-10T20:51:15.628Z,100638.16
2023-04-10T20:54:24.606Z,100633.13
2023-04-10T20:57:33.926Z,100631.56
2023-04-10T21:00:48.691Z,100633.19
2023-04-10T21:03:57.817Z,100630.00
2023-04-10T21:07:12.648Z,100628.94
2023-04-10T21:10:27.626Z,100629.47
2023-04-10T21:13:29.491Z,100634.31
2023-04-10T21:16:44.685Z,100593.19
2023-04-10T21:19:53.266Z,100637.00
2023-04-10T21:23:01.624Z,100623.16
2023-04-10T21:26:16.621Z,100638.09
2023-04-10T21:29:31.609Z,100637.31
2023-04-10T21:32:46.646Z,100631.69
2023-04-10T21:35:54.978Z,100628.25
2023-04-10T21:39:09.614Z,100634.69
2023-04-10T21:42:25.611Z,100633.87
2023-04-10T21:45:40.656Z,100636.00
2023-04-10T21:48:48.624Z,100626.38
2023-04-10T21:52:03.636Z,100622.34
2023-04-10T21:55:06.452Z,100610.88
2023-04-10T21:58:21.643Z,100610.34
2023-04-10T22:01:30.404Z,100601.78
2023-04-10T22:04:44.622Z,100605.25
2023-04-10T22:08:08.616Z,100602.06
2023-04-10T22:11:16.638Z,100592.69
2023-04-10T22:14:31.645Z,100592.16
2023-04-10T22:17:34.338Z,100593.75
2023-04-10T22:20:49.665Z,100592.66
2023-04-10T22:23:52.103Z,100594.28
2023-04-10T22:27:06.622Z,100598.53
2023-04-10T22:30:21.647Z,100590.00
2023-04-10T22:33:23.532Z,100582.50
2023-04-10T22:36:39.650Z,100588.91
2023-04-10T22:39:42.049Z,100576.88
2023-04-10T22:42:56.627Z,100574.47
2023-04-10T22:45:58.491Z,100575.00
2023-04-10T22:49:13.655Z,100576.31
2023-04-10T22:52:15.552Z,100583.28
2023-04-10T22:55:31.636Z,100566.41
2023-04-10T22:58:46.612Z,100562.66
2023-04-10T23:01:48.591Z,100570.69
2023-04-10T23:05:03.636Z,100570.16
2023-04-10T23:08:05.650Z,100580.28
2023-04-10T23:11:20.644Z,100574.94
2023-04-10T23:14:35.614Z,100564.28
2023-04-10T23:17:50.653Z,100568.56
2023-04-10T23:20:58.608Z,100560.00
2023-04-10T23:24:07.261Z,100567.22
2023-04-10T23:27:15.596Z,100566.94
2023-04-10T23:30:30.616Z,100567.50
2023-04-10T23:33:38.609Z,100558.41
2023-04-10T23:36:53.918Z,100552.53
2023-04-10T23:40:09.608Z,100506.25
2023-04-10T23:43:18.656Z,100553.06
2023-04-10T23:46:34.677Z,100549.84
2023-04-10T23:49:43.186Z,100552.25
2023-04-10T23:52:58.593Z,100555.72
2023-04-10T23:56:07.410Z,100552.53
2023-04-10T23:59:22.625Z,100539.22
